• Join FlightAware (Why Join?)
  • Login
  • US Flag 
06:11PM EDT


 

Airport Tracker/Info


-or-


 

Live Flight TrackerFlight Track Log ✈ N9560V ✈ 09-Jul-2013 ✈ KSAC - KMYV

Flight Track Log - Related Links

Times and Time Zones

All times are in EDT time to prevent confusion due to time zone crossing. See the N9560V flight status page for this flight to view local times or setup timezone preferences in your user account.

Time Position Orientation Groundspeed Altitude Reporting Facility
EDT Latitude Longitude Course Direction KTS MPH feet Rate Location/Type
05:10PM 38.5000 -121.5000 North 71 82 500  Level Northern Cal TRACON
05:11PM 38.4833 -121.5167 218° Southwest 69 79 1,100 600 Climbing Northern Cal TRACON
05:12PM 38.4833 -121.5500 270° West 74 85 1,700 600 Climbing Northern Cal TRACON
05:13PM 38.4833 -121.5667 270° West 73 84 2,300 540 Climbing Northern Cal TRACON
05:14PM 38.5000 -121.6000 303° West 78 90 2,800 540 Climbing Northern Cal TRACON
05:15PM 38.5167 -121.6167 322° Northwest 88 101 3,400 480 Climbing Northern Cal TRACON
05:16PM 38.6355 -121.5000 North  Level FlightAware Approximate
05:16PM 38.5500 -121.6167 360° North 88 101 3,800  Level Northern Cal TRACON
05:17PM 38.5667 -121.6333 322° Northwest 93 107 4,200 360 Climbing Northern Cal TRACON
05:18PM 38.6000 -121.6333 360° North 97 112 4,600 300 Climbing Northern Cal TRACON
05:19PM 38.6167 -121.6500 322° Northwest 104 120 4,900 300 Climbing Northern Cal TRACON
05:20PM 38.6500 -121.6500 360° North 114 131 5,200  Climbing Northern Cal TRACON
05:21PM 38.6833 -121.6500 360° North 120 138 5,000 -120 Descending Northern Cal TRACON
05:22PM 38.7167 -121.6333 21° North 114 131 5,000  Level Northern Cal TRACON
05:23PM 38.7500 -121.6333 360° North 116 133 5,000  Level Northern Cal TRACON
05:24PM 38.7833 -121.6333 360° North 116 133 5,000  Level Northern Cal TRACON
05:25PM 38.8167 -121.6167 21° North 117 135 5,000 -60 Level Northern Cal TRACON
05:26PM 38.8500 -121.6167 360° North 124 143 4,900 -300 Descending Northern Cal TRACON
05:27PM 38.8833 -121.6167 360° North 130 150 4,500 -420 Descending Northern Cal TRACON
05:28PM 38.9167 -121.6000 21° North 142 163 4,100 -540 Descending Northern Cal TRACON
05:29PM 38.9500 -121.6000 360° North 132 152 3,500 -540 Descending Northern Cal TRACON
05:30PM 38.9833 -121.6000 360° North 126 145 3,100 -240 Descending Northern Cal TRACON
05:32PM 39.0167 -121.5833 21° North 110 127 3,100 -60 Level Northern Cal TRACON
05:33PM 39.0500 -121.5833 360° North 111 128 3,000  Descending Northern Cal TRACON
05:34PM 39.0833 -121.5667 21° North 110 127 3,100  Climbing Northern Cal TRACON
05:34PM 39.1167 -121.5667 360° North 115 132 3,000 -60 Descending Northern Cal TRACON
05:35PM 39.1333 -121.5833 322° Northwest 115 132 3,000  Level Northern Cal TRACON
05:37PM 39.1667 -121.6000 339° North 109 125 3,000  Level Northern Cal TRACON
05:38PM 39.2000 -121.6000 360° North 105 121 3,000  Level Northern Cal TRACON